Aviation Digital Data Service (ADDS)

Output produced by METARs form (1431 UTC 21 August 2019)
found at http://www.aviationweather.gov/metar/data/
 
METAR text: NZWN 211400Z AUTO 02015KT 9999 OVC015/// 11/09 Q0988 BECMG BKN020 TEMPO 5000 SHRA BKN014
Conditions at: NZWN (WELLINGTON INTL , NZ) observed 1400 UTC 21 August 2019
Temperature: 11.0°C (52°F)
Dewpoint: 9.0°C (48°F) [RH = 87%]
Pressure (altimeter): 29.17 inches Hg (988.0 mb)
Winds: from the NNE (20 degrees) at 17 MPH (15 knots; 7.7 m/s)
Visibility: 6 or more miles (10+ km)
Ceiling: 1500 feet AGL
Clouds: overcast cloud deck at 1500 feet AGL
Weather: no significant weather observed at this time

METAR text: NZWN 211330Z AUTO 02017KT 5000 -RA HZ BKN015/// 10/09 Q0989 REDZ BECMG 9999 BKN020 TEMPO 5000 SHRA BKN014
Conditions at: NZWN (WELLINGTON INTL , NZ) observed 1330 UTC 21 August 2019
Temperature: 10.0°C (50°F)
Dewpoint: 9.0°C (48°F) [RH = 93%]
Pressure (altimeter): 29.20 inches Hg (989.0 mb)
Winds: from the NNE (20 degrees) at 20 MPH (17 knots; 8.7 m/s)
Visibility: 3 miles ( 5 km)
Ceiling: 1500 feet AGL
Clouds: broken clouds at 1500 feet AGL
Weather: -RA HZ  (light rain, haze)

METAR text: NZWN 211300Z AUTO 36018KT 9999 BKN016/// BKN021/// OVC033/// 11/09 Q0989 TEMPO 5000 SHRA BKN012
Conditions at: NZWN (WELLINGTON INTL , NZ) observed 1300 UTC 21 August 2019
Temperature: 11.0°C (52°F)
Dewpoint: 9.0°C (48°F) [RH = 87%]
Pressure (altimeter): 29.20 inches Hg (989.0 mb)
Winds: from the N (360 degrees) at 21 MPH (18 knots; 9.3 m/s)
Visibility: 6 or more miles (10+ km)
Ceiling: 1600 feet AGL
Clouds: broken clouds at 1600 feet AGL
broken clouds at 2100 feet AGL
overcast cloud deck at 3300 feet AGL
Weather: no significant weather observed at this time

METAR text: NZWN 211230Z AUTO 01018KT 9999 BKN017/// BKN024/// 11/10 Q0990 TEMPO 5000 SHRA BKN012
Conditions at: NZWN (WELLINGTON INTL , NZ) observed 1230 UTC 21 August 2019
Temperature: 11.0°C (52°F)
Dewpoint: 10.0°C (50°F) [RH = 94%]
Pressure (altimeter): 29.23 inches Hg (990.0 mb)
Winds: from the N (10 degrees) at 21 MPH (18 knots; 9.3 m/s)
Visibility: 6 or more miles (10+ km)
Ceiling: 1700 feet AGL
Clouds: broken clouds at 1700 feet AGL
broken clouds at 2400 feet AGL
Weather: no significant weather observed at this time

METAR text: NZWN 211200Z AUTO 36017G28KT 9999 -RA SCT014/// BKN022/// BKN033/// 11/10 Q0990 NOSIG
Conditions at: NZWN (WELLINGTON INTL , NZ) observed 1200 UTC 21 August 2019
Temperature: 11.0°C (52°F)
Dewpoint: 10.0°C (50°F) [RH = 94%]
Pressure (altimeter): 29.23 inches Hg (990.0 mb)
Winds: from the N (360 degrees) at 20 MPH (17 knots; 8.7 m/s)
gusting to 32 MPH (28 knots; 14.4 m/s)
Visibility: 6 or more miles (10+ km)
Ceiling: 2200 feet AGL
Clouds: scattered clouds at 1400 feet AGL
broken clouds at 2200 feet AGL
broken clouds at 3300 feet AGL
Weather: -RA  (light rain)

METAR text: NZWN 211130Z AUTO 35017KT 8000 -RA SCT018/// SCT023/// BKN029/// 11/09 Q0991 NOSIG
Conditions at: NZWN (WELLINGTON INTL , NZ) observed 1130 UTC 21 August 2019
Temperature: 11.0°C (52°F)
Dewpoint: 9.0°C (48°F) [RH = 87%]
Pressure (altimeter): 29.26 inches Hg (991.0 mb)
Winds: from the N (350 degrees) at 20 MPH (17 knots; 8.7 m/s)
Visibility: 5 miles ( 8 km)
Ceiling: 2900 feet AGL
Clouds: scattered clouds at 1800 feet AGL
scattered clouds at 2300 feet AGL
broken clouds at 2900 feet AGL
Weather: -RA  (light rain)

METAR text: NZWN 211100Z AUTO 35017KT 9999 -RA FEW020/// BKN025/// BKN033/// 11/09 Q0991 NOSIG
Conditions at: NZWN (WELLINGTON INTL , NZ) observed 1100 UTC 21 August 2019
Temperature: 11.0°C (52°F)
Dewpoint: 9.0°C (48°F) [RH = 87%]
Pressure (altimeter): 29.26 inches Hg (991.0 mb)
Winds: from the N (350 degrees) at 20 MPH (17 knots; 8.7 m/s)
Visibility: 6 or more miles (10+ km)
Ceiling: 2500 feet AGL
Clouds: few clouds at 2000 feet AGL
broken clouds at 2500 feet AGL
broken clouds at 3300 feet AGL
Weather: -RA  (light rain)

METAR text: NZWN 211030Z AUTO 35015G27KT 9999 BKN025/// 12/08 Q0991 NOSIG
Conditions at: NZWN (WELLINGTON INTL , NZ) observed 1030 UTC 21 August 2019
Temperature: 12.0°C (54°F)
Dewpoint: 8.0°C (46°F) [RH = 76%]
Pressure (altimeter): 29.26 inches Hg (991.0 mb)
Winds: from the N (350 degrees) at 17 MPH (15 knots; 7.7 m/s)
gusting to 31 MPH (27 knots; 13.9 m/s)
Visibility: 6 or more miles (10+ km)
Ceiling: 2500 feet AGL
Clouds: broken clouds at 2500 feet AGL
Weather: no significant weather observed at this time

METAR text: NZWN 211000Z AUTO 35012KT 9999 BKN027/// BKN032/// 12/07 Q0992 NOSIG
Conditions at: NZWN (WELLINGTON INTL , NZ) observed 1000 UTC 21 August 2019
Temperature: 12.0°C (54°F)
Dewpoint: 7.0°C (45°F) [RH = 71%]
Pressure (altimeter): 29.29 inches Hg (992.0 mb)
Winds: from the N (350 degrees) at 14 MPH (12 knots; 6.2 m/s)
Visibility: 6 or more miles (10+ km)
Ceiling: 2700 feet AGL
Clouds: broken clouds at 2700 feet AGL
broken clouds at 3200 feet AGL
Weather: no significant weather observed at this time

METAR text: NZWN 210930Z AUTO 35016KT 9999 BKN027/// 12/07 Q0992 NOSIG
Conditions at: NZWN (WELLINGTON INTL , NZ) observed 0930 UTC 21 August 2019
Temperature: 12.0°C (54°F)
Dewpoint: 7.0°C (45°F) [RH = 71%]
Pressure (altimeter): 29.29 inches Hg (992.0 mb)
Winds: from the N (350 degrees) at 18 MPH (16 knots; 8.2 m/s)
Visibility: 6 or more miles (10+ km)
Ceiling: 2700 feet AGL
Clouds: broken clouds at 2700 feet AGL
Weather: no significant weather observed at this time

METAR text: NZWN 210900Z AUTO 35017G29KT 9999 SCT026/// 11/07 Q0992 NOSIG
Conditions at: NZWN (WELLINGTON INTL , NZ) observed 0900 UTC 21 August 2019
Temperature: 11.0°C (52°F)
Dewpoint: 7.0°C (45°F) [RH = 76%]
Pressure (altimeter): 29.29 inches Hg (992.0 mb)
Winds: from the N (350 degrees) at 20 MPH (17 knots; 8.7 m/s)
gusting to 33 MPH (29 knots; 14.9 m/s)
Visibility: 6 or more miles (10+ km)
Ceiling: at least 12,000 feet AGL
Clouds: scattered clouds at 2600 feet AGL
Weather: no significant weather observed at this time

METAR text: NZWN 210830Z AUTO 34017KT 9999 NCD 11/06 Q0992 NOSIG
Conditions at: NZWN (WELLINGTON INTL , NZ) observed 0830 UTC 21 August 2019
Temperature: 11.0°C (52°F)
Dewpoint: 6.0°C (43°F) [RH = 71%]
Pressure (altimeter): 29.29 inches Hg (992.0 mb)
Winds: from the NNW (340 degrees) at 20 MPH (17 knots; 8.7 m/s)
Visibility: 6 or more miles (10+ km)
Ceiling: at least 12,000 feet AGL
Clouds: sky clear below 12,000 feet AGL
Weather: no significant weather observed at this time

METAR text: NZWN 210800Z AUTO 36015KT 9999 NCD 11/06 Q0992 NOSIG
Conditions at: NZWN (WELLINGTON INTL , NZ) observed 0800 UTC 21 August 2019
Temperature: 11.0°C (52°F)
Dewpoint: 6.0°C (43°F) [RH = 71%]
Pressure (altimeter): 29.29 inches Hg (992.0 mb)
Winds: from the N (360 degrees) at 17 MPH (15 knots; 7.7 m/s)
Visibility: 6 or more miles (10+ km)
Ceiling: at least 12,000 feet AGL
Clouds: sky clear below 12,000 feet AGL
Weather: no significant weather observed at this time

METAR text: NZWN 210730Z AUTO 01016KT 9999 NCD 11/05 Q0992 NOSIG
Conditions at: NZWN (WELLINGTON INTL , NZ) observed 0730 UTC 21 August 2019
Temperature: 11.0°C (52°F)
Dewpoint: 5.0°C (41°F) [RH = 66%]
Pressure (altimeter): 29.29 inches Hg (992.0 mb)
Winds: from the N (10 degrees) at 18 MPH (16 knots; 8.2 m/s)
Visibility: 6 or more miles (10+ km)
Ceiling: at least 12,000 feet AGL
Clouds: sky clear below 12,000 feet AGL
Weather: no significant weather observed at this time

METAR text: NZWN 210700Z AUTO 36016KT 9999 NCD 11/06 Q0992 NOSIG
Conditions at: NZWN (WELLINGTON INTL , NZ) observed 0700 UTC 21 August 2019
Temperature: 11.0°C (52°F)
Dewpoint: 6.0°C (43°F) [RH = 71%]
Pressure (altimeter): 29.29 inches Hg (992.0 mb)
Winds: from the N (360 degrees) at 18 MPH (16 knots; 8.2 m/s)
Visibility: 6 or more miles (10+ km)
Ceiling: at least 12,000 feet AGL
Clouds: sky clear below 12,000 feet AGL
Weather: no significant weather observed at this time

METAR text: NZWN 210630Z AUTO 36015KT 9999 NCD 11/07 Q0992 NOSIG
Conditions at: NZWN (WELLINGTON INTL , NZ) observed 0630 UTC 21 August 2019
Temperature: 11.0°C (52°F)
Dewpoint: 7.0°C (45°F) [RH = 76%]
Pressure (altimeter): 29.29 inches Hg (992.0 mb)
Winds: from the N (360 degrees) at 17 MPH (15 knots; 7.7 m/s)
Visibility: 6 or more miles (10+ km)
Ceiling: at least 12,000 feet AGL
Clouds: sky clear below 12,000 feet AGL
Weather: no significant weather observed at this time

METAR text: NZWN 210600Z AUTO 36015KT 9999 NCD 11/06 Q0992 NOSIG
Conditions at: NZWN (WELLINGTON INTL , NZ) observed 0600 UTC 21 August 2019
Temperature: 11.0°C (52°F)
Dewpoint: 6.0°C (43°F) [RH = 71%]
Pressure (altimeter): 29.29 inches Hg (992.0 mb)
Winds: from the N (360 degrees) at 17 MPH (15 knots; 7.7 m/s)
Visibility: 6 or more miles (10+ km)
Ceiling: at least 12,000 feet AGL
Clouds: sky clear below 12,000 feet AGL
Weather: no significant weather observed at this time

METAR text: NZWN 210530Z AUTO 35016KT 9999 NCD 12/06 Q0992 NOSIG
Conditions at: NZWN (WELLINGTON INTL , NZ) observed 0530 UTC 21 August 2019
Temperature: 12.0°C (54°F)
Dewpoint: 6.0°C (43°F) [RH = 67%]
Pressure (altimeter): 29.29 inches Hg (992.0 mb)
Winds: from the N (350 degrees) at 18 MPH (16 knots; 8.2 m/s)
Visibility: 6 or more miles (10+ km)
Ceiling: at least 12,000 feet AGL
Clouds: sky clear below 12,000 feet AGL
Weather: no significant weather observed at this time

METAR text: NZWN 210500Z AUTO 35014KT 9999 NCD 12/06 Q0992 NOSIG
Conditions at: NZWN (WELLINGTON INTL , NZ) observed 0500 UTC 21 August 2019
Temperature: 12.0°C (54°F)
Dewpoint: 6.0°C (43°F) [RH = 67%]
Pressure (altimeter): 29.29 inches Hg (992.0 mb)
Winds: from the N (350 degrees) at 16 MPH (14 knots; 7.2 m/s)
Visibility: 6 or more miles (10+ km)
Ceiling: at least 12,000 feet AGL
Clouds: sky clear below 12,000 feet AGL
Weather: no significant weather observed at this time

METAR text: NZWN 210430Z AUTO 35014KT 9999 NCD 12/06 Q0992 NOSIG
Conditions at: NZWN (WELLINGTON INTL , NZ) observed 0430 UTC 21 August 2019
Temperature: 12.0°C (54°F)
Dewpoint: 6.0°C (43°F) [RH = 67%]
Pressure (altimeter): 29.29 inches Hg (992.0 mb)
Winds: from the N (350 degrees) at 16 MPH (14 knots; 7.2 m/s)
Visibility: 6 or more miles (10+ km)
Ceiling: at least 12,000 feet AGL
Clouds: sky clear below 12,000 feet AGL
Weather: no significant weather observed at this time

METAR text: NZWN 210400Z AUTO 36012KT 9999 FEW029/// 12/08 Q0992 NOSIG
Conditions at: NZWN (WELLINGTON INTL , NZ) observed 0400 UTC 21 August 2019
Temperature: 12.0°C (54°F)
Dewpoint: 8.0°C (46°F) [RH = 76%]
Pressure (altimeter): 29.29 inches Hg (992.0 mb)
Winds: from the N (360 degrees) at 14 MPH (12 knots; 6.2 m/s)
Visibility: 6 or more miles (10+ km)
Ceiling: at least 12,000 feet AGL
Clouds: few clouds at 2900 feet AGL
Weather: no significant weather observed at this time

METAR text: NZWN 210330Z AUTO 01010KT 9999 SCT023/// SCT030/// 13/08 Q0992 NOSIG
Conditions at: NZWN (WELLINGTON INTL , NZ) observed 0330 UTC 21 August 2019
Temperature: 13.0°C (55°F)
Dewpoint: 8.0°C (46°F) [RH = 72%]
Pressure (altimeter): 29.29 inches Hg (992.0 mb)
Winds: from the N (10 degrees) at 12 MPH (10 knots; 5.1 m/s)
Visibility: 6 or more miles (10+ km)
Ceiling: at least 12,000 feet AGL
Clouds: scattered clouds at 2300 feet AGL
scattered clouds at 3000 feet AGL
Weather: no significant weather observed at this time

METAR text: NZWN 210300Z AUTO 36007KT 9999 BKN021/// BKN046/// 13/09 Q0992
Conditions at: NZWN (WELLINGTON INTL , NZ) observed 0300 UTC 21 August 2019
Temperature: 13.0°C (55°F)
Dewpoint: 9.0°C (48°F) [RH = 77%]
Pressure (altimeter): 29.29 inches Hg (992.0 mb)
Winds: from the N (360 degrees) at 8 MPH (7 knots; 3.6 m/s)
Visibility: 6 or more miles (10+ km)
Ceiling: 2100 feet AGL
Clouds: broken clouds at 2100 feet AGL
broken clouds at 4600 feet AGL
Weather: no significant weather observed at this time

METAR text: NZWN 210230Z AUTO 21005KT 9999 FEW019/// BKN048/// 12/08 Q0992 BECMG 34015KT
Conditions at: NZWN (WELLINGTON INTL , NZ) observed 0230 UTC 21 August 2019
Temperature: 12.0°C (54°F)
Dewpoint: 8.0°C (46°F) [RH = 76%]
Pressure (altimeter): 29.29 inches Hg (992.0 mb)
Winds: from the SSW (210 degrees) at 6 MPH (5 knots; 2.6 m/s)
Visibility: 6 or more miles (10+ km)
Ceiling: 4800 feet AGL
Clouds: few clouds at 1900 feet AGL
broken clouds at 4800 feet AGL
Weather: no significant weather observed at this time

METAR text: NZWN 210200Z AUTO 21008KT 9999 SCT021/// BKN028/// BKN035/// 12/08 Q0992 BECMG 34015KT
Conditions at: NZWN (WELLINGTON INTL , NZ) observed 0200 UTC 21 August 2019
Temperature: 12.0°C (54°F)
Dewpoint: 8.0°C (46°F) [RH = 76%]
Pressure (altimeter): 29.29 inches Hg (992.0 mb)
Winds: from the SSW (210 degrees) at 9 MPH (8 knots; 4.1 m/s)
Visibility: 6 or more miles (10+ km)
Ceiling: 2800 feet AGL
Clouds: scattered clouds at 2100 feet AGL
broken clouds at 2800 feet AGL
broken clouds at 3500 feet AGL
Weather: no significant weather observed at this time

METAR text: NZWN 210130Z AUTO 22005KT 180V260 9999 SCT016/// OVC027/// 12/08 Q0992 BECMG 34015KT
Conditions at: NZWN (WELLINGTON INTL , NZ) observed 0130 UTC 21 August 2019
Temperature: 12.0°C (54°F)
Dewpoint: 8.0°C (46°F) [RH = 76%]
Pressure (altimeter): 29.29 inches Hg (992.0 mb)
Winds: from the SW (220 degrees) at 6 MPH (5 knots; 2.6 m/s)
Visibility: 6 or more miles (10+ km)
Ceiling: 2700 feet AGL
Clouds: scattered clouds at 1600 feet AGL
overcast cloud deck at 2700 feet AGL
Weather: no significant weather observed at this time

METAR text: NZWN 210100Z AUTO 23008KT 9999 BKN016/// BKN025/// BKN048/// 11/09 Q0992 BECMG 34015KT
Conditions at: NZWN (WELLINGTON INTL , NZ) observed 0100 UTC 21 August 2019
Temperature: 11.0°C (52°F)
Dewpoint: 9.0°C (48°F) [RH = 87%]
Pressure (altimeter): 29.29 inches Hg (992.0 mb)
Winds: from the SW (230 degrees) at 9 MPH (8 knots; 4.1 m/s)
Visibility: 6 or more miles (10+ km)
Ceiling: 1600 feet AGL
Clouds: broken clouds at 1600 feet AGL
broken clouds at 2500 feet AGL
broken clouds at 4800 feet AGL
Weather: no significant weather observed at this time

METAR text: NZWN 210030Z AUTO 22013KT 9999 SCT011/// BKN039/// BKN060/// 11/09 Q0992 BECMG FM0100 34015KT
Conditions at: NZWN (WELLINGTON INTL , NZ) observed 0030 UTC 21 August 2019
Temperature: 11.0°C (52°F)
Dewpoint: 9.0°C (48°F) [RH = 87%]
Pressure (altimeter): 29.29 inches Hg (992.0 mb)
Winds: from the SW (220 degrees) at 15 MPH (13 knots; 6.7 m/s)
Visibility: 6 or more miles (10+ km)
Ceiling: 3900 feet AGL
Clouds: scattered clouds at 1100 feet AGL
broken clouds at 3900 feet AGL
broken clouds at 6000 feet AGL
Weather: no significant weather observed at this time

METAR text: NZWN 210000Z AUTO 24014KT 220V310 9999 -RA BKN012/// BKN017/// BKN034/// 11/09 Q0993 RERA BECMG FM0100 34015KT SCT012 TEMPO TL0200 6000 RA
Conditions at: NZWN (WELLINGTON INTL , NZ) observed 0000 UTC 21 August 2019
Temperature: 11.0°C (52°F)
Dewpoint: 9.0°C (48°F) [RH = 87%]
Pressure (altimeter): 29.32 inches Hg (993.0 mb)
Winds: from the WSW (240 degrees) at 16 MPH (14 knots; 7.2 m/s)
Visibility: 6 or more miles (10+ km)
Ceiling: 1200 feet AGL
Clouds: broken clouds at 1200 feet AGL
broken clouds at 1700 feet AGL
broken clouds at 3400 feet AGL
Weather: -RA  (light rain)

METAR text: NZWN 202330Z AUTO 36008KT 9999 BKN015/// 12/10 Q0992 TEMPO 6000 RA BKN014
Conditions at: NZWN (WELLINGTON INTL , NZ) observed 2330 UTC 20 August 2019
Temperature: 12.0°C (54°F)
Dewpoint: 10.0°C (50°F) [RH = 88%]
Pressure (altimeter): 29.29 inches Hg (992.0 mb)
Winds: from the N (360 degrees) at 9 MPH (8 knots; 4.1 m/s)
Visibility: 6 or more miles (10+ km)
Ceiling: 1500 feet AGL
Clouds: broken clouds at 1500 feet AGL
Weather: no significant weather observed at this time

METAR text: NZWN 202300Z AUTO 01010KT 9999 OVC015/// 12/10 Q0993 TEMPO 6000 RA BKN014
Conditions at: NZWN (WELLINGTON INTL , NZ) observed 2300 UTC 20 August 2019
Temperature: 12.0°C (54°F)
Dewpoint: 10.0°C (50°F) [RH = 88%]
Pressure (altimeter): 29.32 inches Hg (993.0 mb)
Winds: from the N (10 degrees) at 12 MPH (10 knots; 5.1 m/s)
Visibility: 6 or more miles (10+ km)
Ceiling: 1500 feet AGL
Clouds: overcast cloud deck at 1500 feet AGL
Weather: no significant weather observed at this time

METAR text: NZWN 202230Z AUTO 01011KT 9999 BKN014/// OVC022/// 11/09 Q0993 NOSIG
Conditions at: NZWN (WELLINGTON INTL , NZ) observed 2230 UTC 20 August 2019
Temperature: 11.0°C (52°F)
Dewpoint: 9.0°C (48°F) [RH = 87%]
Pressure (altimeter): 29.32 inches Hg (993.0 mb)
Winds: from the N (10 degrees) at 13 MPH (11 knots; 5.7 m/s)
Visibility: 6 or more miles (10+ km)
Ceiling: 1400 feet AGL
Clouds: broken clouds at 1400 feet AGL
overcast cloud deck at 2200 feet AGL
Weather: no significant weather observed at this time

METAR text: NZWN 202200Z AUTO 01015KT 9999 BKN019/// OVC065/// 11/09 Q0993 NOSIG
Conditions at: NZWN (WELLINGTON INTL , NZ) observed 2200 UTC 20 August 2019
Temperature: 11.0°C (52°F)
Dewpoint: 9.0°C (48°F) [RH = 87%]
Pressure (altimeter): 29.32 inches Hg (993.0 mb)
Winds: from the N (10 degrees) at 17 MPH (15 knots; 7.7 m/s)
Visibility: 6 or more miles (10+ km)
Ceiling: 1900 feet AGL
Clouds: broken clouds at 1900 feet AGL
overcast cloud deck at 6500 feet AGL
Weather: no significant weather observed at this time

METAR text: NZWN 202130Z AUTO 01012KT 9999 -RA BKN020/// BKN026/// BKN055/// 11/09 Q0993 NOSIG
Conditions at: NZWN (WELLINGTON INTL , NZ) observed 2130 UTC 20 August 2019
Temperature: 11.0°C (52°F)
Dewpoint: 9.0°C (48°F) [RH = 87%]
Pressure (altimeter): 29.32 inches Hg (993.0 mb)
Winds: from the N (10 degrees) at 14 MPH (12 knots; 6.2 m/s)
Visibility: 6 or more miles (10+ km)
Ceiling: 2000 feet AGL
Clouds: broken clouds at 2000 feet AGL
broken clouds at 2600 feet AGL
broken clouds at 5500 feet AGL
Weather: -RA  (light rain)

METAR text: NZWN 202100Z AUTO 01014KT 9999 OVC017/// 11/09 Q0993 NOSIG
Conditions at: NZWN (WELLINGTON INTL , NZ) observed 2100 UTC 20 August 2019
Temperature: 11.0°C (52°F)
Dewpoint: 9.0°C (48°F) [RH = 87%]
Pressure (altimeter): 29.32 inches Hg (993.0 mb)
Winds: from the N (10 degrees) at 16 MPH (14 knots; 7.2 m/s)
Visibility: 6 or more miles (10+ km)
Ceiling: 1700 feet AGL
Clouds: overcast cloud deck at 1700 feet AGL
Weather: no significant weather observed at this time

METAR text: NZWN 202030Z AUTO 01013KT 9999 OVC016/// 11/09 Q0993 NOSIG
Conditions at: NZWN (WELLINGTON INTL , NZ) observed 2030 UTC 20 August 2019
Temperature: 11.0°C (52°F)
Dewpoint: 9.0°C (48°F) [RH = 87%]
Pressure (altimeter): 29.32 inches Hg (993.0 mb)
Winds: from the N (10 degrees) at 15 MPH (13 knots; 6.7 m/s)
Visibility: 6 or more miles (10+ km)
Ceiling: 1600 feet AGL
Clouds: overcast cloud deck at 1600 feet AGL
Weather: no significant weather observed at this time

METAR text: NZWN 202000Z AUTO 01011KT 9999 OVC019/// 11/09 Q0993 NOSIG
Conditions at: NZWN (WELLINGTON INTL , NZ) observed 2000 UTC 20 August 2019
Temperature: 11.0°C (52°F)
Dewpoint: 9.0°C (48°F) [RH = 87%]
Pressure (altimeter): 29.32 inches Hg (993.0 mb)
Winds: from the N (10 degrees) at 13 MPH (11 knots; 5.7 m/s)
Visibility: 6 or more miles (10+ km)
Ceiling: 1900 feet AGL
Clouds: overcast cloud deck at 1900 feet AGL
Weather: no significant weather observed at this time

METAR text: NZWN 201930Z AUTO 03009KT 9999 BKN025/// OVC070/// 11/08 Q0993 NOSIG
Conditions at: NZWN (WELLINGTON INTL , NZ) observed 1930 UTC 20 August 2019
Temperature: 11.0°C (52°F)
Dewpoint: 8.0°C (46°F) [RH = 82%]
Pressure (altimeter): 29.32 inches Hg (993.0 mb)
Winds: from the NNE (30 degrees) at 10 MPH (9 knots; 4.6 m/s)
Visibility: 6 or more miles (10+ km)
Ceiling: 2500 feet AGL
Clouds: broken clouds at 2500 feet AGL
overcast cloud deck at 7000 feet AGL
Weather: no significant weather observed at this time

METAR text: NZWN 201900Z AUTO 36005KT 9999 BKN028/// 10/08 Q0993 NOSIG
Conditions at: NZWN (WELLINGTON INTL , NZ) observed 1900 UTC 20 August 2019
Temperature: 10.0°C (50°F)
Dewpoint: 8.0°C (46°F) [RH = 87%]
Pressure (altimeter): 29.32 inches Hg (993.0 mb)
Winds: from the N (360 degrees) at 6 MPH (5 knots; 2.6 m/s)
Visibility: 6 or more miles (10+ km)
Ceiling: 2800 feet AGL
Clouds: broken clouds at 2800 feet AGL
Weather: no significant weather observed at this time

METAR text: NZWN 201830Z AUTO 35006KT 9999 OVC028/// 10/08 Q0993 NOSIG
Conditions at: NZWN (WELLINGTON INTL , NZ) observed 1830 UTC 20 August 2019
Temperature: 10.0°C (50°F)
Dewpoint: 8.0°C (46°F) [RH = 87%]
Pressure (altimeter): 29.32 inches Hg (993.0 mb)
Winds: from the N (350 degrees) at 7 MPH (6 knots; 3.1 m/s)
Visibility: 6 or more miles (10+ km)
Ceiling: 2800 feet AGL
Clouds: overcast cloud deck at 2800 feet AGL
Weather: no significant weather observed at this time

METAR text: NZWN 201800Z AUTO 36008KT 9999 -RA OVC030/// 10/08 Q0993 NOSIG
Conditions at: NZWN (WELLINGTON INTL , NZ) observed 1800 UTC 20 August 2019
Temperature: 10.0°C (50°F)
Dewpoint: 8.0°C (46°F) [RH = 87%]
Pressure (altimeter): 29.32 inches Hg (993.0 mb)
Winds: from the N (360 degrees) at 9 MPH (8 knots; 4.1 m/s)
Visibility: 6 or more miles (10+ km)
Ceiling: 3000 feet AGL
Clouds: overcast cloud deck at 3000 feet AGL
Weather: -RA  (light rain)

METAR text: NZWN 201730Z AUTO 01007KT 9999 -RA BKN032/// BKN060/// 10/08 Q0993 NOSIG
Conditions at: NZWN (WELLINGTON INTL , NZ) observed 1730 UTC 20 August 2019
Temperature: 10.0°C (50°F)
Dewpoint: 8.0°C (46°F) [RH = 87%]
Pressure (altimeter): 29.32 inches Hg (993.0 mb)
Winds: from the N (10 degrees) at 8 MPH (7 knots; 3.6 m/s)
Visibility: 6 or more miles (10+ km)
Ceiling: 3200 feet AGL
Clouds: broken clouds at 3200 feet AGL
broken clouds at 6000 feet AGL
Weather: -RA  (light rain)

METAR text: NZWN 201700Z AUTO 02007KT 9999 VCSH BKN039/// OVC060/// 10/08 Q0994 NOSIG
Conditions at: NZWN (WELLINGTON INTL , NZ) observed 1700 UTC 20 August 2019
Temperature: 10.0°C (50°F)
Dewpoint: 8.0°C (46°F) [RH = 87%]
Pressure (altimeter): 29.35 inches Hg (994.0 mb)
Winds: from the NNE (20 degrees) at 8 MPH (7 knots; 3.6 m/s)
Visibility: 6 or more miles (10+ km)
Ceiling: 3900 feet AGL
Clouds: broken clouds at 3900 feet AGL
overcast cloud deck at 6000 feet AGL
Weather: VCSH  (showers in vicinity)

METAR text: NZWN 201630Z AUTO 35006KT 9999 -RA OVC034/// 10/08 Q0994 NOSIG
Conditions at: NZWN (WELLINGTON INTL , NZ) observed 1630 UTC 20 August 2019
Temperature: 10.0°C (50°F)
Dewpoint: 8.0°C (46°F) [RH = 87%]
Pressure (altimeter): 29.35 inches Hg (994.0 mb)
Winds: from the N (350 degrees) at 7 MPH (6 knots; 3.1 m/s)
Visibility: 6 or more miles (10+ km)
Ceiling: 3400 feet AGL
Clouds: overcast cloud deck at 3400 feet AGL
Weather: -RA  (light rain)

METAR text: NZWN 201600Z AUTO 01007KT 9999 VCRA OVC037/// 10/07 Q0994 NOSIG
Conditions at: NZWN (WELLINGTON INTL , NZ) observed 1600 UTC 20 August 2019
Temperature: 10.0°C (50°F)
Dewpoint: 7.0°C (45°F) [RH = 82%]
Pressure (altimeter): 29.35 inches Hg (994.0 mb)
Winds: from the N (10 degrees) at 8 MPH (7 knots; 3.6 m/s)
Visibility: 6 or more miles (10+ km)
Ceiling: 3700 feet AGL
Clouds: overcast cloud deck at 3700 feet AGL
Weather: VCRA  (unknown weather)

METAR text: NZWN 201530Z AUTO 01009KT 9999 -RA BKN039/// BKN049/// 10/08 Q0995 NOSIG
Conditions at: NZWN (WELLINGTON INTL , NZ) observed 1530 UTC 20 August 2019
Temperature: 10.0°C (50°F)
Dewpoint: 8.0°C (46°F) [RH = 87%]
Pressure (altimeter): 29.38 inches Hg (995.0 mb)
Winds: from the N (10 degrees) at 10 MPH (9 knots; 4.6 m/s)
Visibility: 6 or more miles (10+ km)
Ceiling: 3900 feet AGL
Clouds: broken clouds at 3900 feet AGL
broken clouds at 4900 feet AGL
Weather: -RA  (light rain)

METAR text: NZWN 201500Z AUTO 36006KT 9999 -RA OVC039/// 10/08 Q0995 TEMPO 6000 RA
Conditions at: NZWN (WELLINGTON INTL , NZ) observed 1500 UTC 20 August 2019
Temperature: 10.0°C (50°F)
Dewpoint: 8.0°C (46°F) [RH = 87%]
Pressure (altimeter): 29.38 inches Hg (995.0 mb)
Winds: from the N (360 degrees) at 7 MPH (6 knots; 3.1 m/s)
Visibility: 6 or more miles (10+ km)
Ceiling: 3900 feet AGL
Clouds: overcast cloud deck at 3900 feet AGL
Weather: -RA  (light rain)

METAR text: NZWN 201430Z AUTO 02008KT 9999 -RA BKN042/// BKN055/// 10/08 Q0996 TEMPO 6000 RA
Conditions at: NZWN (WELLINGTON INTL , NZ) observed 1430 UTC 20 August 2019
Temperature: 10.0°C (50°F)
Dewpoint: 8.0°C (46°F) [RH = 87%]
Pressure (altimeter): 29.41 inches Hg (996.0 mb)
Winds: from the NNE (20 degrees) at 9 MPH (8 knots; 4.1 m/s)
Visibility: 6 or more miles (10+ km)
Ceiling: 4200 feet AGL
Clouds: broken clouds at 4200 feet AGL
broken clouds at 5500 feet AGL
Weather: -RA  (light rain)

METAR text: NZWN 201400Z AUTO 02009KT 9999 -RA FEW038/// BKN065/// BKN085/// 10/07 Q0996 TEMPO 6000 RA
Conditions at: NZWN (WELLINGTON INTL , NZ) observed 1400 UTC 20 August 2019
Temperature: 10.0°C (50°F)
Dewpoint: 7.0°C (45°F) [RH = 82%]
Pressure (altimeter): 29.41 inches Hg (996.0 mb)
Winds: from the NNE (20 degrees) at 10 MPH (9 knots; 4.6 m/s)
Visibility: 6 or more miles (10+ km)
Ceiling: 6500 feet AGL
Clouds: few clouds at 3800 feet AGL
broken clouds at 6500 feet AGL
broken clouds at 8500 feet AGL
Weather: -RA  (light rain)

METAR text: NZWN 201330Z AUTO 03008KT 9999 -RA OVC036/// 10/08 Q0997 REDZ TEMPO 6000 RA
Conditions at: NZWN (WELLINGTON INTL , NZ) observed 1330 UTC 20 August 2019
Temperature: 10.0°C (50°F)
Dewpoint: 8.0°C (46°F) [RH = 87%]
Pressure (altimeter): 29.44 inches Hg (997.0 mb)
Winds: from the NNE (30 degrees) at 9 MPH (8 knots; 4.1 m/s)
Visibility: 6 or more miles (10+ km)
Ceiling: 3600 feet AGL
Clouds: overcast cloud deck at 3600 feet AGL
Weather: -RA  (light rain)

METAR text: NZWN 201300Z AUTO 01013KT 9999 -DZ FEW036/// BKN050/// OVC070/// 10/07 Q0997 TEMPO 6000 RA
Conditions at: NZWN (WELLINGTON INTL , NZ) observed 1300 UTC 20 August 2019
Temperature: 10.0°C (50°F)
Dewpoint: 7.0°C (45°F) [RH = 82%]
Pressure (altimeter): 29.44 inches Hg (997.0 mb)
Winds: from the N (10 degrees) at 15 MPH (13 knots; 6.7 m/s)
Visibility: 6 or more miles (10+ km)
Ceiling: 5000 feet AGL
Clouds: few clouds at 3600 feet AGL
broken clouds at 5000 feet AGL
overcast cloud deck at 7000 feet AGL
Weather: -DZ  (light drizzle)

METAR text: NZWN 201230Z AUTO 01013KT 9999 -RA SCT034/// BKN050/// BKN070/// 10/07 Q0997 TEMPO 6000 RA
Conditions at: NZWN (WELLINGTON INTL , NZ) observed 1230 UTC 20 August 2019
Temperature: 10.0°C (50°F)
Dewpoint: 7.0°C (45°F) [RH = 82%]
Pressure (altimeter): 29.44 inches Hg (997.0 mb)
Winds: from the N (10 degrees) at 15 MPH (13 knots; 6.7 m/s)
Visibility: 6 or more miles (10+ km)
Ceiling: 5000 feet AGL
Clouds: scattered clouds at 3400 feet AGL
broken clouds at 5000 feet AGL
broken clouds at 7000 feet AGL
Weather: -RA  (light rain)

METAR text: NZWN 201200Z AUTO 01013KT 9999 -RA FEW032/// BKN040/// OVC065/// 10/07 Q0998 TEMPO 6000 RA
Conditions at: NZWN (WELLINGTON INTL , NZ) observed 1200 UTC 20 August 2019
Temperature: 10.0°C (50°F)
Dewpoint: 7.0°C (45°F) [RH = 82%]
Pressure (altimeter): 29.47 inches Hg (998.0 mb)
Winds: from the N (10 degrees) at 15 MPH (13 knots; 6.7 m/s)
Visibility: 6 or more miles (10+ km)
Ceiling: 4000 feet AGL
Clouds: few clouds at 3200 feet AGL
broken clouds at 4000 feet AGL
overcast cloud deck at 6500 feet AGL
Weather: -RA  (light rain)

METAR text: NZWN 201130Z AUTO 02012KT 9999 -RA BKN039/// BKN048/// BKN060/// 11/07 Q0998 TEMPO FM1200 6000 RA
Conditions at: NZWN (WELLINGTON INTL , NZ) observed 1130 UTC 20 August 2019
Temperature: 11.0°C (52°F)
Dewpoint: 7.0°C (45°F) [RH = 76%]
Pressure (altimeter): 29.47 inches Hg (998.0 mb)
Winds: from the NNE (20 degrees) at 14 MPH (12 knots; 6.2 m/s)
Visibility: 6 or more miles (10+ km)
Ceiling: 3900 feet AGL
Clouds: broken clouds at 3900 feet AGL
broken clouds at 4800 feet AGL
broken clouds at 6000 feet AGL
Weather: -RA  (light rain)

METAR text: NZWN 201100Z AUTO 01013KT 9999 -RA SCT040/// BKN047/// 11/07 Q0998 TEMPO FM1200 6000 RA
Conditions at: NZWN (WELLINGTON INTL , NZ) observed 1100 UTC 20 August 2019
Temperature: 11.0°C (52°F)
Dewpoint: 7.0°C (45°F) [RH = 76%]
Pressure (altimeter): 29.47 inches Hg (998.0 mb)
Winds: from the N (10 degrees) at 15 MPH (13 knots; 6.7 m/s)
Visibility: 6 or more miles (10+ km)
Ceiling: 4700 feet AGL
Clouds: scattered clouds at 4000 feet AGL
broken clouds at 4700 feet AGL
Weather: -RA  (light rain)

METAR text: NZWN 201030Z AUTO 01013KT 9999 -RA SCT044/// BKN055/// OVC070/// 11/07 Q0999 TEMPO FM1200 6000 RA
Conditions at: NZWN (WELLINGTON INTL , NZ) observed 1030 UTC 20 August 2019
Temperature: 11.0°C (52°F)
Dewpoint: 7.0°C (45°F) [RH = 76%]
Pressure (altimeter): 29.50 inches Hg (999.0 mb)
Winds: from the N (10 degrees) at 15 MPH (13 knots; 6.7 m/s)
Visibility: 6 or more miles (10+ km)
Ceiling: 5500 feet AGL
Clouds: scattered clouds at 4400 feet AGL
broken clouds at 5500 feet AGL
overcast cloud deck at 7000 feet AGL
Weather: -RA  (light rain)

METAR text: NZWN 201000Z AUTO 01014KT 9999 -RA BKN037/// OVC047/// 11/08 Q0999 NOSIG
Conditions at: NZWN (WELLINGTON INTL , NZ) observed 1000 UTC 20 August 2019
Temperature: 11.0°C (52°F)
Dewpoint: 8.0°C (46°F) [RH = 82%]
Pressure (altimeter): 29.50 inches Hg (999.0 mb)
Winds: from the N (10 degrees) at 16 MPH (14 knots; 7.2 m/s)
Visibility: 6 or more miles (10+ km)
Ceiling: 3700 feet AGL
Clouds: broken clouds at 3700 feet AGL
overcast cloud deck at 4700 feet AGL
Weather: -RA  (light rain)

METAR text: NZWN 200930Z AUTO 01013KT 9999 -RA BKN042/// OVC055/// 11/08 Q0999 NOSIG
Conditions at: NZWN (WELLINGTON INTL , NZ) observed 0930 UTC 20 August 2019
Temperature: 11.0°C (52°F)
Dewpoint: 8.0°C (46°F) [RH = 82%]
Pressure (altimeter): 29.50 inches Hg (999.0 mb)
Winds: from the N (10 degrees) at 15 MPH (13 knots; 6.7 m/s)
Visibility: 6 or more miles (10+ km)
Ceiling: 4200 feet AGL
Clouds: broken clouds at 4200 feet AGL
overcast cloud deck at 5500 feet AGL
Weather: -RA  (light rain)

METAR text: NZWN 200900Z AUTO 01015KT 9999 -RA BKN055/// 12/07 Q0999 NOSIG
Conditions at: NZWN (WELLINGTON INTL , NZ) observed 0900 UTC 20 August 2019
Temperature: 12.0°C (54°F)
Dewpoint: 7.0°C (45°F) [RH = 71%]
Pressure (altimeter): 29.50 inches Hg (999.0 mb)
Winds: from the N (10 degrees) at 17 MPH (15 knots; 7.7 m/s)
Visibility: 6 or more miles (10+ km)
Ceiling: 5500 feet AGL
Clouds: broken clouds at 5500 feet AGL
Weather: -RA  (light rain)

METAR text: NZWN 200830Z AUTO 01012KT 9999 BKN060/// 12/06 Q1000 NOSIG
Conditions at: NZWN (WELLINGTON INTL , NZ) observed 0830 UTC 20 August 2019
Temperature: 12.0°C (54°F)
Dewpoint: 6.0°C (43°F) [RH = 67%]
Pressure (altimeter): 29.53 inches Hg (1000.0 mb)
Winds: from the N (10 degrees) at 14 MPH (12 knots; 6.2 m/s)
Visibility: 6 or more miles (10+ km)
Ceiling: 6000 feet AGL
Clouds: broken clouds at 6000 feet AGL
Weather: no significant weather observed at this time

METAR text: NZWN 200800Z AUTO 01015KT 9999 -RA FEW045/// BKN060/// 11/07 Q1000 NOSIG
Conditions at: NZWN (WELLINGTON INTL , NZ) observed 0800 UTC 20 August 2019
Temperature: 11.0°C (52°F)
Dewpoint: 7.0°C (45°F) [RH = 76%]
Pressure (altimeter): 29.53 inches Hg (1000.0 mb)
Winds: from the N (10 degrees) at 17 MPH (15 knots; 7.7 m/s)
Visibility: 6 or more miles (10+ km)
Ceiling: 6000 feet AGL
Clouds: few clouds at 4500 feet AGL
broken clouds at 6000 feet AGL
Weather: -RA  (light rain)

METAR text: NZWN 200730Z AUTO 01016KT 9999 -RA BKN070/// 12/08 Q1000 NOSIG
Conditions at: NZWN (WELLINGTON INTL , NZ) observed 0730 UTC 20 August 2019
Temperature: 12.0°C (54°F)
Dewpoint: 8.0°C (46°F) [RH = 76%]
Pressure (altimeter): 29.53 inches Hg (1000.0 mb)
Winds: from the N (10 degrees) at 18 MPH (16 knots; 8.2 m/s)
Visibility: 6 or more miles (10+ km)
Ceiling: 7000 feet AGL
Clouds: broken clouds at 7000 feet AGL
Weather: -RA  (light rain)

METAR text: NZWN 200700Z AUTO 01015KT 9999 FEW070/// 12/06 Q1001 NOSIG
Conditions at: NZWN (WELLINGTON INTL , NZ) observed 0700 UTC 20 August 2019
Temperature: 12.0°C (54°F)
Dewpoint: 6.0°C (43°F) [RH = 67%]
Pressure (altimeter): 29.56 inches Hg (1001.0 mb)
Winds: from the N (10 degrees) at 17 MPH (15 knots; 7.7 m/s)
Visibility: 6 or more miles (10+ km)
Ceiling: at least 12,000 feet AGL
Clouds: few clouds at 7000 feet AGL
Weather: no significant weather observed at this time

METAR text: NZWN 200630Z AUTO 01016KT 9999 NCD 11/06 Q1001 NOSIG
Conditions at: NZWN (WELLINGTON INTL , NZ) observed 0630 UTC 20 August 2019
Temperature: 11.0°C (52°F)
Dewpoint: 6.0°C (43°F) [RH = 71%]
Pressure (altimeter): 29.56 inches Hg (1001.0 mb)
Winds: from the N (10 degrees) at 18 MPH (16 knots; 8.2 m/s)
Visibility: 6 or more miles (10+ km)
Ceiling: at least 12,000 feet AGL
Clouds: sky clear below 12,000 feet AGL
Weather: no significant weather observed at this time

METAR text: NZWN 200600Z AUTO 01017KT 9999 NCD 12/05 Q1001 NOSIG
Conditions at: NZWN (WELLINGTON INTL , NZ) observed 0600 UTC 20 August 2019
Temperature: 12.0°C (54°F)
Dewpoint: 5.0°C (41°F) [RH = 62%]
Pressure (altimeter): 29.56 inches Hg (1001.0 mb)
Winds: from the N (10 degrees) at 20 MPH (17 knots; 8.7 m/s)
Visibility: 6 or more miles (10+ km)
Ceiling: at least 12,000 feet AGL
Clouds: sky clear below 12,000 feet AGL
Weather: no significant weather observed at this time

METAR text: NZWN 200530Z AUTO 01018KT 9999 NCD 12/06 Q1002 NOSIG
Conditions at: NZWN (WELLINGTON INTL , NZ) observed 0530 UTC 20 August 2019
Temperature: 12.0°C (54°F)
Dewpoint: 6.0°C (43°F) [RH = 67%]
Pressure (altimeter): 29.59 inches Hg (1002.0 mb)
Winds: from the N (10 degrees) at 21 MPH (18 knots; 9.3 m/s)
Visibility: 6 or more miles (10+ km)
Ceiling: at least 12,000 feet AGL
Clouds: sky clear below 12,000 feet AGL
Weather: no significant weather observed at this time

METAR text: NZWN 200500Z AUTO 01017KT 9999 NCD 12/05 Q1002 NOSIG
Conditions at: NZWN (WELLINGTON INTL , NZ) observed 0500 UTC 20 August 2019
Temperature: 12.0°C (54°F)
Dewpoint: 5.0°C (41°F) [RH = 62%]
Pressure (altimeter): 29.59 inches Hg (1002.0 mb)
Winds: from the N (10 degrees) at 20 MPH (17 knots; 8.7 m/s)
Visibility: 6 or more miles (10+ km)
Ceiling: at least 12,000 feet AGL
Clouds: sky clear below 12,000 feet AGL
Weather: no significant weather observed at this time

METAR text: NZWN 200430Z AUTO 01018KT 9999 NCD 12/05 Q1003 NOSIG
Conditions at: NZWN (WELLINGTON INTL , NZ) observed 0430 UTC 20 August 2019
Temperature: 12.0°C (54°F)
Dewpoint: 5.0°C (41°F) [RH = 62%]
Pressure (altimeter): 29.62 inches Hg (1003.0 mb)
Winds: from the N (10 degrees) at 21 MPH (18 knots; 9.3 m/s)
Visibility: 6 or more miles (10+ km)
Ceiling: at least 12,000 feet AGL
Clouds: sky clear below 12,000 feet AGL
Weather: no significant weather observed at this time

METAR text: NZWN 200400Z AUTO 01017KT 9999 FEW034/// 13/06 Q1004 NOSIG
Conditions at: NZWN (WELLINGTON INTL , NZ) observed 0400 UTC 20 August 2019
Temperature: 13.0°C (55°F)
Dewpoint: 6.0°C (43°F) [RH = 62%]
Pressure (altimeter): 29.65 inches Hg (1004.0 mb)
Winds: from the N (10 degrees) at 20 MPH (17 knots; 8.7 m/s)
Visibility: 6 or more miles (10+ km)
Ceiling: at least 12,000 feet AGL
Clouds: few clouds at 3400 feet AGL
Weather: no significant weather observed at this time

METAR text: NZWN 200330Z AUTO 01022G32KT 9999 BKN047/// 13/06 Q1004 NOSIG
Conditions at: NZWN (WELLINGTON INTL , NZ) observed 0330 UTC 20 August 2019
Temperature: 13.0°C (55°F)
Dewpoint: 6.0°C (43°F) [RH = 62%]
Pressure (altimeter): 29.65 inches Hg (1004.0 mb)
Winds: from the N (10 degrees) at 25 MPH (22 knots; 11.3 m/s)
gusting to 37 MPH (32 knots; 16.5 m/s)
Visibility: 6 or more miles (10+ km)
Ceiling: 4700 feet AGL
Clouds: broken clouds at 4700 feet AGL
Weather: no significant weather observed at this time

METAR text: NZWN 200300Z AUTO 01023KT 9999 BKN047/// 13/05 Q1004 NOSIG
Conditions at: NZWN (WELLINGTON INTL , NZ) observed 0300 UTC 20 August 2019
Temperature: 13.0°C (55°F)
Dewpoint: 5.0°C (41°F) [RH = 58%]
Pressure (altimeter): 29.65 inches Hg (1004.0 mb)
Winds: from the N (10 degrees) at 26 MPH (23 knots; 11.8 m/s)
Visibility: 6 or more miles (10+ km)
Ceiling: 4700 feet AGL
Clouds: broken clouds at 4700 feet AGL
Weather: no significant weather observed at this time

Forecast for: NZWN (WELLINGTON INTL , NZ)
Text: TAF NZWN 211125Z 2112/2212 36018G30KT 9999 -SHRA BKN020
Forecast period: 1200 UTC 21 August 2019 to 1200 UTC 22 August 2019
Forecast type: FROM: standard forecast or significant change
Winds: from the N (360 degrees) at 21 MPH (18 knots; 9.3 m/s)
gusting to 34 MPH (30 knots; 15.4 m/s)
Visibility: 6 or more miles 10+ km)
Ceiling: 2000 feet AGL
Clouds: broken clouds at 2000 feet AGL
Weather: -SHRA  (light rain showers)
Text: TEMPO 2112/2121 5000 SHRA BKN012
Forecast period: 1200 to 2100 UTC 21 August 2019
Forecast type: TEMPORARY: The following changes expected for less than half the time period
Visibility: 3 miles (5 km)
Ceiling: 1200 feet AGL
Clouds: broken clouds at 1200 feet AGL
Weather: SHRA  (rain showers)
Text: TEMPO 2208/2212 7000 SHRA
Forecast period: 0800 to 1200 UTC 22 August 2019
Forecast type: TEMPORARY: The following changes expected for less than half the time period
Visibility: 4 miles (7 km)
Ceiling: unknown
Clouds: missing
Weather: SHRA  (rain showers)